Time;durP1;ratioP1;P1;durP2;ratioP2;P2;SDS_P1;SDS_P2;PMS_P1;PMS_P2;Temp;Humidity;BMP_temperature;BMP_pressure;BME280_temperature;BME280_humidity;BME280_pressure;Samples;Min_cycle;Max_cycle;Signal;HPM_P1;HPM_P2
2023/01/21 00:02:13;;;;;;;20.40;10.75;;;;;;;;;;6341486;22;20146;-60
2023/01/21 00:04:39;;;;;;;25.75;11.40;;;;;;;;;;6342236;22;20154;-63
2023/01/21 00:07:05;;;;;;;22.77;11.93;;;;;;;;;;6342496;22;20134;-62
2023/01/21 00:09:32;;;;;;;21.58;10.07;;;;;;;;;;6345308;22;20236;-63
2023/01/21 00:12:01;;;;;;;22.33;11.00;;;;;;;;;;6363044;22;20177;-63
2023/01/21 00:14:27;;;;;;;25.80;11.55;;;;;;;;;;6364668;22;20193;-63
2023/01/21 00:16:53;;;;;;;24.30;11.07;;;;;;;;;;6354171;22;20157;-63
2023/01/21 00:19:19;;;;;;;23.60;11.73;;;;;;;;;;6350880;22;20152;-63
2023/01/21 00:21:45;;;;;;;21.55;10.75;;;;;;;;;;6347555;22;20158;-62
2023/01/21 00:24:11;;;;;;;25.75;11.02;;;;;;;;;;6345582;22;20181;-63
2023/01/21 00:26:37;;;;;;;20.83;10.32;;;;;;;;;;6344871;22;20142;-62
2023/01/21 00:29:03;;;;;;;20.63;10.15;;;;;;;;;;6343125;22;20149;-63
2023/01/21 00:31:29;;;;;;;22.20;11.18;;;;;;;;;;6344323;22;20221;-62
2023/01/21 00:33:55;;;;;;;27.67;11.40;;;;;;;;;;6344376;22;20149;-62
2023/01/21 00:36:23;;;;;;;22.23;10.45;;;;;;;;;;6344344;22;20157;-62
2023/01/21 00:38:49;;;;;;;21.50;10.90;;;;;;;;;;6344600;22;20138;-62
2023/01/21 00:41:16;;;;;;;24.77;11.07;;;;;;;;;;6343556;22;20201;-61
2023/01/21 00:43:42;;;;;;;23.63;11.60;;;;;;;;;;6344476;22;20153;-62
2023/01/21 00:46:08;;;;;;;22.58;10.50;;;;;;;;;;6343625;22;20143;-62
2023/01/21 00:48:34;;;;;;;25.52;10.88;;;;;;;;;;6342374;22;20518;-63
2023/01/21 00:51:00;;;;;;;21.05;10.52;;;;;;;;;;6342445;22;20166;-61
2023/01/21 00:53:27;;;;;;;22.52;10.52;;;;;;;;;;6342644;22;20201;-60
2023/01/21 00:55:53;;;;;;;24.45;10.75;;;;;;;;;;6341939;22;20463;-62
2023/01/21 00:58:19;;;;;;;21.08;9.95;;;;;;;;;;6342276;22;20138;-61
2023/01/21 01:00:45;;;;;;;24.35;10.50;;;;;;;;;;6341882;22;20178;-63
2023/01/21 01:03:11;;;;;;;21.45;10.95;;;;;;;;;;6342197;22;20487;-62
2023/01/21 01:05:37;;;;;;;20.55;10.35;;;;;;;;;;6342605;22;20447;-62
2023/01/21 01:08:03;;;;;;;23.55;10.52;;;;;;;;;;6342242;22;20146;-62
2023/01/21 01:10:30;;;;;;;21.25;10.30;;;;;;;;;;6340877;22;20203;-62
2023/01/21 01:12:56;;;;;;;21.98;10.45;;;;;;;;;;6341908;22;20161;-62
2023/01/21 01:15:22;;;;;;;20.33;9.93;;;;;;;;;;6342059;22;20236;-62
2023/01/21 01:17:48;;;;;;;22.25;10.88;;;;;;;;;;6341531;22;20139;-61
2023/01/21 01:20:14;;;;;;;20.73;10.88;;;;;;;;;;6341911;22;20180;-62
2023/01/21 01:22:41;;;;;;;20.77;10.05;;;;;;;;;;6341668;22;20576;-62
2023/01/21 01:25:08;;;;;;;20.75;10.32;;;;;;;;;;6341968;22;20154;-62
2023/01/21 01:27:34;;;;;;;21.85;10.02;;;;;;;;;;6342154;22;20178;-62
2023/01/21 01:30:00;;;;;;;19.90;10.52;;;;;;;;;;6341880;22;20142;-61
2023/01/21 01:32:26;;;;;;;21.20;10.15;;;;;;;;;;6341778;22;20138;-62
2023/01/21 01:34:52;;;;;;;21.77;10.15;;;;;;;;;;6342635;22;20158;-62
2023/01/21 01:37:18;;;;;;;21.13;9.82;;;;;;;;;;6341545;22;20217;-63
2023/01/21 01:39:44;;;;;;;19.75;10.25;;;;;;;;;;6341778;22;20166;-62
2023/01/21 01:42:14;;;;;;;22.58;10.95;;;;;;;;;;6341979;22;20145;-62
2023/01/21 01:45:00;;;;;;;20.23;9.90;;;;;;;;;;6341965;22;20221;-62
2023/01/21 01:47:31;;;;;;;20.25;10.23;;;;;;;;;;6341366;22;20438;-62
2023/01/21 01:49:58;;;;;;;22.27;10.73;;;;;;;;;;6341634;22;20613;-62
2023/01/21 01:52:24;;;;;;;21.95;10.27;;;;;;;;;;6341674;22;20178;-62
2023/01/21 01:54:52;;;;;;;22.48;10.07;;;;;;;;;;6341270;22;20143;-62
2023/01/21 01:57:19;;;;;;;20.23;9.80;;;;;;;;;;6341840;22;20230;-62
2023/01/21 01:59:46;;;;;;;21.80;9.88;;;;;;;;;;6341226;22;20596;-61
2023/01/21 02:02:15;;;;;;;19.48;9.52;;;;;;;;;;6341610;22;20153;-62
2023/01/21 02:04:43;;;;;;;19.25;10.00;;;;;;;;;;6341969;22;20142;-61
2023/01/21 02:07:10;;;;;;;24.35;10.88;;;;;;;;;;6342149;22;20207;-61
2023/01/21 02:09:36;;;;;;;20.70;10.65;;;;;;;;;;6342151;22;20146;-62
2023/01/21 02:12:02;;;;;;;20.13;9.75;;;;;;;;;;6340738;22;20448;-62
2023/01/21 02:14:29;;;;;;;20.35;10.30;;;;;;;;;;6341644;22;20169;-61
2023/01/21 02:17:01;;;;;;;20.67;10.38;;;;;;;;;;6341365;22;20417;-62
2023/01/21 02:19:41;;;;;;;20.75;9.93;;;;;;;;;;6341412;22;20173;-62
2023/01/21 02:22:06;;;;;;;19.35;10.35;;;;;;;;;;6341188;22;20157;-62
2023/01/21 02:24:47;;;;;;;21.20;10.55;;;;;;;;;;6340976;22;20323;-61
2023/01/21 02:27:32;;;;;;;22.88;10.38;;;;;;;;;;6341076;22;20221;-62
2023/01/21 02:30:01;;;;;;;19.63;9.70;;;;;;;;;;6341584;22;20158;-62
2023/01/21 02:32:39;;;;;;;21.67;10.80;;;;;;;;;;6341380;22;20454;-62
2023/01/21 02:35:05;;;;;;;26.13;10.52;;;;;;;;;;6341400;22;20206;-62
2023/01/21 02:37:36;;;;;;;19.10;9.57;;;;;;;;;;6340966;22;20153;-61
2023/01/21 02:40:10;;;;;;;22.80;10.73;;;;;;;;;;6341259;22;20158;-62
2023/01/21 02:42:41;;;;;;;22.38;9.88;;;;;;;;;;6341343;22;20146;-62
2023/01/21 02:45:13;;;;;;;22.15;10.27;;;;;;;;;;6341719;22;20448;-62
2023/01/21 02:48:04;;;;;;;19.77;10.27;;;;;;;;;;6342053;22;20222;-62
2023/01/21 02:50:32;;;;;;;20.73;9.90;;;;;;;;;;6341460;22;20140;-62
2023/01/21 02:53:00;;;;;;;21.65;9.82;;;;;;;;;;6341202;22;20169;-61
2023/01/21 02:55:30;;;;;;;22.55;10.27;;;;;;;;;;6341298;22;20195;-62
2023/01/21 02:57:58;;;;;;;23.05;10.80;;;;;;;;;;6341243;22;20211;-62
2023/01/21 03:00:31;;;;;;;21.67;10.07;;;;;;;;;;6341379;22;20450;-62
2023/01/21 03:03:21;;;;;;;21.02;10.43;;;;;;;;;;6341354;22;20141;-61
2023/01/21 03:05:54;;;;;;;24.15;11.32;;;;;;;;;;6341392;22;20131;-63
2023/01/21 03:08:21;;;;;;;19.92;9.48;;;;;;;;;;6341401;22;20141;-62
2023/01/21 03:10:50;;;;;;;22.60;10.95;;;;;;;;;;6342017;22;20166;-62
2023/01/21 03:16:55;;;;;;;20.83;10.52;;;;;;;;;;6340996;22;20225;-62
2023/01/21 03:18:56;;;;;;;21.75;10.32;;;;;;;;;;6340988;22;20142;-63
2023/01/21 03:21:25;;;;;;;24.15;10.98;;;;;;;;;;6340877;22;20208;-63
2023/01/21 03:23:52;;;;;;;21.13;10.25;;;;;;;;;;6341383;22;20123;-62
2023/01/21 03:26:21;;;;;;;21.15;9.65;;;;;;;;;;6342699;22;20505;-63
2023/01/21 03:28:52;;;;;;;22.52;10.70;;;;;;;;;;6342573;22;20157;-63
2023/01/21 03:31:20;;;;;;;24.63;10.95;;;;;;;;;;6343074;22;20141;-61
2023/01/21 03:33:49;;;;;;;21.38;10.23;;;;;;;;;;6342856;22;20199;-63
2023/01/21 03:36:36;;;;;;;21.45;10.90;;;;;;;;;;6342859;22;20229;-62
2023/01/21 03:39:05;;;;;;;25.98;11.77;;;;;;;;;;6342177;22;20233;-62
2023/01/21 03:41:33;;;;;;;20.58;10.15;;;;;;;;;;6343029;22;20161;-63
2023/01/21 03:43:59;;;;;;;20.85;10.43;;;;;;;;;;6342786;22;20146;-63
2023/01/21 03:46:26;;;;;;;21.55;9.70;;;;;;;;;;6352012;22;20138;-62
2023/01/21 03:49:11;;;;;;;23.85;10.50;;;;;;;;;;6342933;22;20140;-62
2023/01/21 03:51:40;;;;;;;25.88;10.38;;;;;;;;;;6342932;22;20139;-61
2023/01/21 03:54:06;;;;;;;24.48;10.77;;;;;;;;;;6342684;22;20149;-62
2023/01/21 03:56:31;;;;;;;21.58;10.13;;;;;;;;;;6342644;22;20142;-62
2023/01/21 03:58:57;;;;;;;22.75;10.32;;;;;;;;;;6342409;22;20157;-62
2023/01/21 04:01:23;;;;;;;23.27;10.18;;;;;;;;;;6344925;22;20166;-61
2023/01/21 04:03:49;;;;;;;24.75;11.48;;;;;;;;;;6344906;22;20146;-63
2023/01/21 04:06:16;;;;;;;24.13;10.40;;;;;;;;;;6344945;22;20142;-62
2023/01/21 04:08:43;;;;;;;25.90;10.52;;;;;;;;;;6343977;22;20162;-62
2023/01/21 04:11:09;;;;;;;25.00;10.48;;;;;;;;;;6343821;22;20153;-61
2023/01/21 04:13:35;;;;;;;28.90;10.82;;;;;;;;;;6343991;22;20442;-63
2023/01/21 04:16:01;;;;;;;26.23;10.88;;;;;;;;;;6343005;22;20142;-62
2023/01/21 04:18:27;;;;;;;22.70;10.73;;;;;;;;;;6342699;22;20400;-61
2023/01/21 04:20:52;;;;;;;22.13;10.20;;;;;;;;;;6347619;22;20162;-62
2023/01/21 04:23:18;;;;;;;29.05;11.18;;;;;;;;;;6358744;22;20131;-63
2023/01/21 04:25:46;;;;;;;24.75;10.68;;;;;;;;;;6363704;22;20154;-63
2023/01/21 04:28:12;;;;;;;27.17;11.75;;;;;;;;;;6354921;22;20139;-63
2023/01/21 04:30:38;;;;;;;25.20;9.85;;;;;;;;;;6352167;22;20169;-61
2023/01/21 04:33:04;;;;;;;22.98;10.82;;;;;;;;;;6346913;22;20173;-63
2023/01/21 04:35:30;;;;;;;22.50;10.13;;;;;;;;;;6346989;22;20150;-61
2023/01/21 04:37:56;;;;;;;26.67;10.32;;;;;;;;;;6342722;22;20142;-62
2023/01/21 04:40:22;;;;;;;24.92;10.52;;;;;;;;;;6342395;22;20177;-62
2023/01/21 04:42:48;;;;;;;24.85;10.77;;;;;;;;;;6342591;22;20142;-62
2023/01/21 04:45:14;;;;;;;24.50;10.73;;;;;;;;;;6342167;22;20549;-61
2023/01/21 04:47:43;;;;;;;24.63;11.23;;;;;;;;;;6341496;22;20146;-63
2023/01/21 04:50:10;;;;;;;26.92;10.48;;;;;;;;;;6342037;22;20157;-63
2023/01/21 04:52:36;;;;;;;26.63;11.07;;;;;;;;;;6342264;22;20142;-62
2023/01/21 04:55:02;;;;;;;22.27;9.80;;;;;;;;;;6342012;22;20146;-63
2023/01/21 04:57:28;;;;;;;24.13;10.48;;;;;;;;;;6342006;22;20218;-62
2023/01/21 04:59:54;;;;;;;24.50;10.82;;;;;;;;;;6341791;22;20173;-62
2023/01/21 05:02:20;;;;;;;25.35;9.85;;;;;;;;;;6342057;22;20142;-63
2023/01/21 05:04:46;;;;;;;24.20;10.30;;;;;;;;;;6341913;22;20142;-63
2023/01/21 05:07:13;;;;;;;24.52;10.45;;;;;;;;;;6342053;22;20209;-62
2023/01/21 05:09:39;;;;;;;27.38;11.23;;;;;;;;;;6342046;22;20520;-63
2023/01/21 05:12:05;;;;;;;21.92;10.15;;;;;;;;;;6342130;22;20169;-64
2023/01/21 05:14:31;;;;;;;23.35;10.57;;;;;;;;;;6342056;22;20462;-64
2023/01/21 05:16:57;;;;;;;21.60;10.13;;;;;;;;;;6341534;22;20157;-62
2023/01/21 05:19:23;;;;;;;29.42;11.80;;;;;;;;;;6341523;22;20169;-61
2023/01/21 05:21:49;;;;;;;26.67;11.02;;;;;;;;;;6342121;22;20161;-63
2023/01/21 05:24:15;;;;;;;27.25;11.45;;;;;;;;;;6341465;22;20592;-63
2023/01/21 05:26:42;;;;;;;25.70;10.70;;;;;;;;;;6341643;22;20130;-63
2023/01/21 05:29:08;;;;;;;28.33;12.20;;;;;;;;;;6341452;22;20545;-63
2023/01/21 05:31:34;;;;;;;28.30;11.77;;;;;;;;;;6341479;22;20173;-63
2023/01/21 05:34:00;;;;;;;28.73;10.82;;;;;;;;;;6341367;22;20138;-63
2023/01/21 05:36:26;;;;;;;31.33;12.43;;;;;;;;;;6341383;22;20498;-61
2023/01/21 05:38:52;;;;;;;26.08;11.02;;;;;;;;;;6341645;22;20211;-63
2023/01/21 05:41:18;;;;;;;23.95;11.48;;;;;;;;;;6341686;22;20589;-62
2023/01/21 05:43:44;;;;;;;28.90;12.68;;;;;;;;;;6341567;22;20584;-63
2023/01/21 05:46:09;;;;;;;28.45;13.02;;;;;;;;;;6341716;22;20142;-63
2023/01/21 05:48:35;;;;;;;25.65;11.52;;;;;;;;;;6340914;22;20525;-63
2023/01/21 05:51:01;;;;;;;34.42;13.90;;;;;;;;;;6341533;22;20149;-63
2023/01/21 05:53:27;;;;;;;25.40;12.02;;;;;;;;;;6341606;22;20213;-63
2023/01/21 05:55:54;;;;;;;31.83;12.98;;;;;;;;;;6341142;22;20541;-63
2023/01/21 05:58:20;;;;;;;25.60;13.25;;;;;;;;;;6341342;22;20166;-63
2023/01/21 06:00:47;;;;;;;26.67;11.93;;;;;;;;;;6341235;22;20241;-63
2023/01/21 06:03:13;;;;;;;27.65;13.65;;;;;;;;;;6341949;22;20487;-63
2023/01/21 06:05:40;;;;;;;31.42;13.85;;;;;;;;;;6341046;22;20153;-63
2023/01/21 06:08:06;;;;;;;31.15;14.77;;;;;;;;;;6341531;22;20142;-63
2023/01/21 06:10:32;;;;;;;31.17;14.38;;;;;;;;;;6341499;22;20209;-63
2023/01/21 06:12:58;;;;;;;33.53;14.57;;;;;;;;;;6341177;22;20146;-63
2023/01/21 06:15:24;;;;;;;29.27;13.55;;;;;;;;;;6341580;22;20432;-63
2023/01/21 06:17:51;;;;;;;30.55;13.55;;;;;;;;;;6341199;22;20138;-63
2023/01/21 06:20:17;;;;;;;32.72;14.60;;;;;;;;;;6341353;22;20170;-62
2023/01/21 06:22:43;;;;;;;34.03;15.95;;;;;;;;;;6341124;22;20161;-63
2023/01/21 06:25:09;;;;;;;32.80;13.80;;;;;;;;;;6341042;22;20565;-63
2023/01/21 06:27:37;;;;;;;27.88;13.55;;;;;;;;;;6341566;22;20432;-63
2023/01/21 06:30:03;;;;;;;27.77;13.13;;;;;;;;;;6339920;22;20232;-63
2023/01/21 06:32:29;;;;;;;29.20;13.68;;;;;;;;;;6341372;22;20532;-63
2023/01/21 06:34:55;;;;;;;27.90;12.90;;;;;;;;;;6341247;22;20166;-64
2023/01/21 06:37:21;;;;;;;31.30;13.93;;;;;;;;;;6342419;22;20521;-60
2023/01/21 06:39:47;;;;;;;29.08;13.43;;;;;;;;;;6343870;22;20169;-62
2023/01/21 06:42:13;;;;;;;28.35;13.35;;;;;;;;;;6343673;22;20157;-63
2023/01/21 06:44:39;;;;;;;31.20;14.25;;;;;;;;;;6341618;22;20221;-61
2023/01/21 06:47:05;;;;;;;28.52;13.45;;;;;;;;;;6341318;22;20389;-63
2023/01/21 06:49:31;;;;;;;29.15;13.93;;;;;;;;;;6341010;22;20417;-63
2023/01/21 06:51:57;;;;;;;29.60;13.82;;;;;;;;;;6341572;22;20138;-63
2023/01/21 06:54:23;;;;;;;30.58;14.18;;;;;;;;;;6341700;22;20213;-63
2023/01/21 06:56:49;;;;;;;28.75;14.25;;;;;;;;;;6341060;22;20139;-62
2023/01/21 06:59:15;;;;;;;32.70;14.63;;;;;;;;;;6342463;22;20404;-63
2023/01/21 07:01:41;;;;;;;25.48;12.57;;;;;;;;;;6343133;22;20414;-63
2023/01/21 07:04:07;;;;;;;31.20;14.32;;;;;;;;;;6343107;22;20224;-63
2023/01/21 07:06:33;;;;;;;28.75;13.63;;;;;;;;;;6343041;22;20139;-63
2023/01/21 07:08:59;;;;;;;30.38;13.65;;;;;;;;;;6342976;22;20164;-64
2023/01/21 07:11:25;;;;;;;32.28;14.57;;;;;;;;;;6342998;22;20188;-63
2023/01/21 07:13:51;;;;;;;27.13;13.38;;;;;;;;;;6343390;22;20215;-62
2023/01/21 07:16:17;;;;;;;28.55;13.85;;;;;;;;;;6343062;22;20142;-61
2023/01/21 07:18:42;;;;;;;29.30;14.07;;;;;;;;;;6342984;22;20146;-61
2023/01/21 07:21:08;;;;;;;25.73;13.35;;;;;;;;;;6342355;22;20174;-61
2023/01/21 07:23:34;;;;;;;31.75;15.30;;;;;;;;;;6341990;22;20131;-62
2023/01/21 07:26:00;;;;;;;26.38;12.85;;;;;;;;;;6342873;22;20154;-60
2023/01/21 07:28:26;;;;;;;28.65;14.27;;;;;;;;;;6343131;22;20148;-62
2023/01/21 07:30:52;;;;;;;25.52;13.13;;;;;;;;;;6343637;22;20157;-61
2023/01/21 07:33:18;;;;;;;29.60;13.70;;;;;;;;;;6343289;22;20150;-61
2023/01/21 07:35:44;;;;;;;28.10;13.77;;;;;;;;;;6343929;22;20150;-62
2023/01/21 07:38:10;;;;;;;32.40;13.63;;;;;;;;;;6344901;22;20153;-61
2023/01/21 07:40:36;;;;;;;30.95;13.98;;;;;;;;;;6344497;22;20477;-62
2023/01/21 07:43:02;;;;;;;25.98;13.20;;;;;;;;;;6344672;22;20412;-61
2023/01/21 07:45:28;;;;;;;28.30;14.07;;;;;;;;;;6344041;22;20178;-61
2023/01/21 07:47:54;;;;;;;31.15;13.70;;;;;;;;;;6344587;22;20138;-63
2023/01/21 07:50:20;;;;;;;30.23;14.73;;;;;;;;;;6344297;22;20616;-61
2023/01/21 07:52:46;;;;;;;25.15;13.77;;;;;;;;;;6342766;22;20474;-63
2023/01/21 07:55:12;;;;;;;32.70;14.88;;;;;;;;;;6342496;22;20153;-63
2023/01/21 07:57:38;;;;;;;27.92;13.63;;;;;;;;;;6341925;22;20164;-63
2023/01/21 08:00:05;;;;;;;27.60;13.75;;;;;;;;;;6342780;22;20307;-63
2023/01/21 08:02:31;;;;;;;28.52;13.73;;;;;;;;;;6342721;22;20142;-63
2023/01/21 08:04:57;;;;;;;32.55;13.75;;;;;;;;;;6342444;22;20178;-63
2023/01/21 08:07:23;;;;;;;29.45;13.55;;;;;;;;;;6342603;22;20154;-62
2023/01/21 08:09:49;;;;;;;26.70;13.60;;;;;;;;;;6342047;22;20150;-62
2023/01/21 08:12:16;;;;;;;32.00;13.93;;;;;;;;;;6342436;22;20673;-63
2023/01/21 08:14:42;;;;;;;28.75;13.23;;;;;;;;;;6342377;22;20150;-63
2023/01/21 08:17:08;;;;;;;27.98;13.20;;;;;;;;;;6342073;22;20151;-61
2023/01/21 08:19:34;;;;;;;28.00;13.38;;;;;;;;;;6342612;22;20172;-62
2023/01/21 08:22:00;;;;;;;29.27;14.77;;;;;;;;;;6342058;22;20154;-62
2023/01/21 08:24:26;;;;;;;27.75;13.68;;;;;;;;;;6342402;22;20149;-62
2023/01/21 08:26:52;;;;;;;26.40;13.30;;;;;;;;;;6342459;22;20146;-62
2023/01/21 08:29:18;;;;;;;25.70;13.25;;;;;;;;;;6342437;22;20146;-63
2023/01/21 08:31:44;;;;;;;22.80;12.00;;;;;;;;;;6341969;22;20142;-63
2023/01/21 08:34:10;;;;;;;25.83;13.10;;;;;;;;;;6342003;22;20431;-62
2023/01/21 08:36:37;;;;;;;26.92;13.07;;;;;;;;;;6342408;22;20143;-62
2023/01/21 08:39:06;;;;;;;26.48;13.10;;;;;;;;;;6342179;22;20172;-63
2023/01/21 08:41:34;;;;;;;28.42;13.48;;;;;;;;;;6341753;22;20162;-63
2023/01/21 08:44:00;;;;;;;28.75;12.60;;;;;;;;;;6341996;22;20145;-63
2023/01/21 08:46:26;;;;;;;25.05;12.68;;;;;;;;;;6342063;22;20139;-63
2023/01/21 08:48:52;;;;;;;23.77;12.88;;;;;;;;;;6342521;22;20153;-63
2023/01/21 08:51:18;;;;;;;28.30;12.18;;;;;;;;;;6341808;22;20194;-63
2023/01/21 08:53:44;;;;;;;24.33;10.95;;;;;;;;;;6342054;22;20227;-63
2023/01/21 08:56:10;;;;;;;24.17;11.93;;;;;;;;;;6341589;22;20149;-63
2023/01/21 08:58:37;;;;;;;18.80;10.02;;;;;;;;;;6341997;22;20161;-63
2023/01/21 09:01:10;;;;;;;19.00;9.70;;;;;;;;;;6341906;22;20162;-62
2023/01/21 09:03:36;;;;;;;19.30;9.65;;;;;;;;;;6342204;22;20135;-63
2023/01/21 09:06:03;;;;;;;15.30;8.80;;;;;;;;;;6341476;22;20570;-59
2023/01/21 09:08:29;;;;;;;16.50;7.97;;;;;;;;;;6341683;22;20558;-63
2023/01/21 09:11:02;;;;;;;14.95;8.02;;;;;;;;;;6341440;22;20150;-63
2023/01/21 09:13:38;;;;;;;14.48;7.65;;;;;;;;;;6341998;22;20229;-62
2023/01/21 09:16:07;;;;;;;12.93;7.32;;;;;;;;;;6341869;22;20416;-62
2023/01/21 09:18:33;;;;;;;10.95;6.35;;;;;;;;;;6341948;22;20219;-63
2023/01/21 09:21:00;;;;;;;12.98;7.00;;;;;;;;;;6341227;22;20585;-63
2023/01/21 09:23:26;;;;;;;10.35;5.93;;;;;;;;;;6341393;22;20522;-62
2023/01/21 09:25:52;;;;;;;10.43;6.50;;;;;;;;;;6341962;22;20216;-63
2023/01/21 09:28:19;;;;;;;10.80;5.45;;;;;;;;;;6341399;22;20553;-63
2023/01/21 09:30:45;;;;;;;8.35;5.45;;;;;;;;;;6341820;22;20150;-63
2023/01/21 09:33:11;;;;;;;8.85;5.22;;;;;;;;;;6341598;22;20154;-63
2023/01/21 09:35:37;;;;;;;9.88;5.25;;;;;;;;;;6341437;22;20150;-63
2023/01/21 09:38:03;;;;;;;7.00;4.30;;;;;;;;;;6341858;22;20199;-63
2023/01/21 09:40:29;;;;;;;8.05;4.55;;;;;;;;;;6341515;22;20173;-63
2023/01/21 09:42:55;;;;;;;6.90;4.03;;;;;;;;;;6341450;22;20134;-63
2023/01/21 09:45:22;;;;;;;6.50;4.13;;;;;;;;;;6342161;22;20139;-63
2023/01/21 09:47:49;;;;;;;7.40;3.80;;;;;;;;;;6341672;22;20142;-63
2023/01/21 09:50:17;;;;;;;6.40;4.40;;;;;;;;;;6366618;22;20497;-63
2023/01/21 09:52:48;;;;;;;7.38;4.20;;;;;;;;;;6342300;22;20157;-63
2023/01/21 09:55:16;;;;;;;6.82;4.05;;;;;;;;;;6341691;22;20178;-62
2023/01/21 09:57:48;;;;;;;7.40;4.40;;;;;;;;;;6341299;22;20153;-61
2023/01/21 10:00:17;;;;;;;8.38;5.07;;;;;;;;;;6341638;22;20187;-63
2023/01/21 10:02:43;;;;;;;6.65;4.80;;;;;;;;;;6341512;22;20142;-63
2023/01/21 10:05:24;;;;;;;8.32;4.47;;;;;;;;;;6341284;22;20144;-62
2023/01/21 10:07:56;;;;;;;6.28;4.07;;;;;;;;;;6341152;22;20138;-61
2023/01/21 10:10:25;;;;;;;6.53;4.40;;;;;;;;;;6341788;22;20134;-62
2023/01/21 10:12:54;;;;;;;7.88;4.32;;;;;;;;;;6341555;22;20203;-60
2023/01/21 10:15:30;;;;;;;7.55;4.43;;;;;;;;;;6341594;22;20184;-63
2023/01/21 10:18:31;;;;;;;6.55;4.55;;;;;;;;;;6341419;22;20505;-61
2023/01/21 10:21:03;;;;;;;6.32;4.63;;;;;;;;;;6218704;23;20206;-62
2023/01/21 10:23:45;;;;;;;8.32;4.80;;;;;;;;;;6236354;23;20156;-63
2023/01/21 10:26:12;;;;;;;9.20;4.90;;;;;;;;;;6236302;23;20172;-62
2023/01/21 10:28:40;;;;;;;7.25;4.68;;;;;;;;;;6202881;23;20471;-62
2023/01/21 10:31:10;;;;;;;4.50;3.65;;;;;;;;;;6221897;23;20149;-63
2023/01/21 10:33:36;;;;;;;5.78;3.55;;;;;;;;;;6222714;23;20148;-64
2023/01/21 10:36:16;;;;;;;5.28;3.50;;;;;;;;;;6222398;23;20157;-63
2023/01/21 10:38:48;;;;;;;4.90;3.30;;;;;;;;;;6223719;23;20133;-63
2023/01/21 10:41:26;;;;;;;6.40;3.13;;;;;;;;;;6220026;23;20438;-62
2023/01/21 10:44:15;;;;;;;5.70;3.30;;;;;;;;;;6218683;23;20210;-62
2023/01/21 10:46:45;;;;;;;5.63;3.05;;;;;;;;;;6218063;23;20137;-62
2023/01/21 10:49:24;;;;;;;3.92;2.75;;;;;;;;;;6218204;23;20149;-62
2023/01/21 10:52:03;;;;;;;4.18;2.88;;;;;;;;;;6217926;23;20150;-62
2023/01/21 10:54:44;;;;;;;2.67;2.20;;;;;;;;;;6259945;22;20211;-62
2023/01/21 10:57:10;;;;;;;4.70;2.42;;;;;;;;;;6343187;22;20142;-62
2023/01/21 10:59:37;;;;;;;3.67;2.10;;;;;;;;;;6342742;22;20433;-63
2023/01/21 11:02:09;;;;;;;4.63;2.58;;;;;;;;;;6343140;22;20150;-63
2023/01/21 11:04:36;;;;;;;3.28;2.10;;;;;;;;;;6343061;22;20285;-60
2023/01/21 11:07:04;;;;;;;3.80;2.30;;;;;;;;;;6343193;22;20422;-62
2023/01/21 11:09:36;;;;;;;2.97;2.35;;;;;;;;;;6343069;22;20152;-63
2023/01/21 11:12:02;;;;;;;3.13;2.13;;;;;;;;;;6343021;22;20164;-63
2023/01/21 11:14:28;;;;;;;5.82;2.38;;;;;;;;;;6343598;22;20169;-62
2023/01/21 11:16:55;;;;;;;3.58;2.63;;;;;;;;;;6344494;22;20596;-62
2023/01/21 11:19:30;;;;;;;5.55;2.50;;;;;;;;;;6344237;22;20146;-62
2023/01/21 11:21:58;;;;;;;4.25;3.22;;;;;;;;;;6345113;22;20211;-62
2023/01/21 11:24:25;;;;;;;3.70;3.00;;;;;;;;;;6346096;22;20581;-63
2023/01/21 11:26:52;;;;;;;3.22;2.30;;;;;;;;;;6344580;22;20175;-62
2023/01/21 11:29:20;;;;;;;6.53;2.92;;;;;;;;;;6345381;22;20142;-63
2023/01/21 11:32:06;;;;;;;4.20;3.00;;;;;;;;;;6343115;22;20147;-63
2023/01/21 11:34:33;;;;;;;3.90;2.50;;;;;;;;;;6342640;22;20158;-63
2023/01/21 11:37:03;;;;;;;3.17;2.50;;;;;;;;;;6342611;22;20146;-63
2023/01/21 11:39:40;;;;;;;4.25;2.50;;;;;;;;;;6342904;22;20147;-63
2023/01/21 11:42:16;;;;;;;4.43;2.50;;;;;;;;;;6342878;22;20149;-63
2023/01/21 11:45:03;;;;;;;3.58;2.38;;;;;;;;;;6342976;22;20141;-61
2023/01/21 11:47:48;;;;;;;5.15;2.60;;;;;;;;;;6342973;22;20222;-63
2023/01/21 11:50:17;;;;;;;4.00;2.47;;;;;;;;;;6342735;22;20150;-62
2023/01/21 11:52:43;;;;;;;4.68;2.30;;;;;;;;;;6342940;22;20218;-62
2023/01/21 11:55:23;;;;;;;4.28;2.42;;;;;;;;;;6342584;22;20143;-63
2023/01/21 11:57:50;;;;;;;4.97;2.30;;;;;;;;;;6342365;22;20134;-63
2023/01/21 12:00:18;;;;;;;3.50;2.47;;;;;;;;;;6342460;22;20192;-63
2023/01/21 12:02:47;;;;;;;5.32;2.85;;;;;;;;;;6342285;22;20150;-62
2023/01/21 12:05:15;;;;;;;4.63;2.80;;;;;;;;;;6342543;22;20162;-63
2023/01/21 12:07:42;;;;;;;6.18;3.13;;;;;;;;;;6342542;22;20211;-63
2023/01/21 12:10:11;;;;;;;5.63;2.60;;;;;;;;;;6342008;22;20149;-63
2023/01/21 12:12:40;;;;;;;9.02;3.20;;;;;;;;;;6342193;22;20153;-64
2023/01/21 12:15:16;;;;;;;5.22;2.85;;;;;;;;;;6342348;22;20142;-63
2023/01/21 12:18:01;;;;;;;4.93;2.63;;;;;;;;;;6342775;22;20221;-63
2023/01/21 12:20:36;;;;;;;5.70;2.70;;;;;;;;;;6342512;22;20226;-63
2023/01/21 12:23:11;;;;;;;4.03;2.83;;;;;;;;;;6342052;22;20230;-62
2023/01/21 12:25:43;;;;;;;5.28;2.45;;;;;;;;;;6342529;22;20179;-64
2023/01/21 12:28:16;;;;;;;8.27;2.78;;;;;;;;;;6342130;22;20206;-65
2023/01/21 12:30:48;;;;;;;3.60;2.60;;;;;;;;;;6342125;22;20214;-63
2023/01/21 12:33:34;;;;;;;3.92;2.75;;;;;;;;;;6342412;22;20146;-62
2023/01/21 12:36:04;;;;;;;7.05;3.47;;;;;;;;;;6279570;22;20142;-63
2023/01/21 12:38:35;;;;;;;5.72;3.33;;;;;;;;;;6342206;22;20236;-63
2023/01/21 12:41:10;;;;;;;4.22;3.00;;;;;;;;;;6342218;22;20178;-64
2023/01/21 12:43:39;;;;;;;5.22;3.40;;;;;;;;;;6341861;22;20164;-63
2023/01/21 12:46:24;;;;;;;5.60;3.30;;;;;;;;;;6342230;22;20626;-63
2023/01/21 12:48:56;;;;;;;4.82;3.65;;;;;;;;;;6341987;22;20428;-63
2023/01/21 12:51:25;;;;;;;7.22;3.40;;;;;;;;;;6341839;22;20560;-63
2023/01/21 12:53:59;;;;;;;7.13;3.50;;;;;;;;;;6342777;22;20501;-63
2023/01/21 12:56:40;;;;;;;5.18;4.03;;;;;;;;;;6341880;22;20430;-63
2023/01/21 12:59:15;;;;;;;6.20;3.95;;;;;;;;;;6366871;22;20146;-63
2023/01/21 13:01:41;;;;;;;6.82;4.00;;;;;;;;;;6342020;22;20465;-63
2023/01/21 13:04:25;;;;;;;8.75;4.00;;;;;;;;;;6341996;22;20138;-63
2023/01/21 13:07:17;;;;;;;5.97;3.78;;;;;;;;;;6341837;22;20205;-62
2023/01/21 13:09:46;;;;;;;5.93;3.65;;;;;;;;;;6336380;22;20202;-63
2023/01/21 13:12:19;;;;;;;7.22;3.72;;;;;;;;;;6341881;22;20267;-62
2023/01/21 13:14:48;;;;;;;5.20;3.80;;;;;;;;;;6342061;22;20161;-62
2023/01/21 13:17:16;;;;;;;5.95;3.83;;;;;;;;;;6342958;22;20145;-62
2023/01/21 13:19:42;;;;;;;6.10;4.00;;;;;;;;;;6341674;22;20320;-63
2023/01/21 13:22:15;;;;;;;7.05;4.10;;;;;;;;;;6341850;22;20150;-63
2023/01/21 13:25:00;;;;;;;5.45;4.13;;;;;;;;;;6341698;22;20131;-63
2023/01/21 13:27:28;;;;;;;8.52;3.88;;;;;;;;;;6342016;22;20205;-64
2023/01/21 13:30:17;;;;;;;5.57;3.78;;;;;;;;;;6341655;22;20164;-63
2023/01/21 13:32:59;;;;;;;7.47;3.92;;;;;;;;;;6341940;22;20131;-62
2023/01/21 13:35:32;;;;;;;7.95;4.53;;;;;;;;;;6341599;22;20213;-61
2023/01/21 13:38:04;;;;;;;5.20;3.55;;;;;;;;;;6340785;22;20138;-63
2023/01/21 13:40:42;;;;;;;5.78;4.00;;;;;;;;;;6341660;22;20247;-63
2023/01/21 13:43:11;;;;;;;5.60;3.63;;;;;;;;;;6341732;22;20142;-63
2023/01/21 13:45:46;;;;;;;4.53;3.70;;;;;;;;;;6341237;22;20162;-63
2023/01/21 13:48:18;;;;;;;5.45;3.60;;;;;;;;;;6341564;22;20427;-63
2023/01/21 13:50:54;;;;;;;6.85;3.70;;;;;;;;;;6341479;22;20154;-63
2023/01/21 13:53:26;;;;;;;5.82;3.60;;;;;;;;;;6341567;22;20145;-62
2023/01/21 13:56:01;;;;;;;4.57;3.47;;;;;;;;;;6341309;22;20161;-62
2023/01/21 13:58:36;;;;;;;6.47;3.45;;;;;;;;;;6341434;22;20148;-63
2023/01/21 14:01:10;;;;;;;6.22;3.88;;;;;;;;;;6341402;22;20177;-62
2023/01/21 14:03:57;;;;;;;4.88;3.63;;;;;;;;;;6341597;22;20131;-63
2023/01/21 14:06:25;;;;;;;4.82;3.30;;;;;;;;;;6341368;22;20290;-61
2023/01/21 14:08:56;;;;;;;4.82;3.25;;;;;;;;;;6340991;22;20173;-63
2023/01/21 14:11:26;;;;;;;5.85;3.45;;;;;;;;;;6341307;22;20537;-63
2023/01/21 14:13:55;;;;;;;6.15;3.45;;;;;;;;;;6341527;22;20213;-63
2023/01/21 14:16:31;;;;;;;5.75;3.40;;;;;;;;;;6341441;22;20419;-62
2023/01/21 14:19:12;;;;;;;5.85;3.58;;;;;;;;;;6342358;22;20210;-62
2023/01/21 14:21:44;;;;;;;4.57;3.15;;;;;;;;;;6340954;22;20174;-62
2023/01/21 14:24:19;;;;;;;4.43;3.40;;;;;;;;;;6341013;22;20145;-62
2023/01/21 14:27:02;;;;;;;8.10;3.60;;;;;;;;;;6340942;22;20148;-63
2023/01/21 14:29:34;;;;;;;6.43;3.85;;;;;;;;;;6340892;22;20150;-62
2023/01/21 14:32:13;;;;;;;7.28;3.53;;;;;;;;;;6341472;22;20146;-62
2023/01/21 14:34:55;;;;;;;5.43;4.10;;;;;;;;;;6341442;22;20153;-62
2023/01/21 14:37:30;;;;;;;5.80;3.95;;;;;;;;;;6341119;22;20527;-61
2023/01/21 14:40:02;;;;;;;6.43;3.70;;;;;;;;;;6341940;22;20607;-62
2023/01/21 14:42:42;;;;;;;4.93;3.60;;;;;;;;;;6342745;22;20142;-62